sensor_id;sensor_type;location;lat;lon;timestamp;pressure;altitude;pressure_sealevel;temperature;humidity
74163;BME280;62515;52.758;5.076;2024-01-30T00:00:35;102601.31;;;6.32;100.00
74163;BME280;62515;52.758;5.076;2024-01-30T00:03:02;102594.00;;;6.42;100.00
74163;BME280;62515;52.758;5.076;2024-01-30T00:05:29;102587.91;;;6.40;100.00
74163;BME280;62515;52.758;5.076;2024-01-30T00:07:57;102599.97;;;6.50;100.00
74163;BME280;62515;52.758;5.076;2024-01-30T00:10:24;102600.88;;;6.49;100.00
74163;BME280;62515;52.758;5.076;2024-01-30T00:12:51;102609.28;;;6.63;100.00
74163;BME280;62515;52.758;5.076;2024-01-30T00:15:18;102609.94;;;6.71;100.00
74163;BME280;62515;52.758;5.076;2024-01-30T00:17:44;102602.69;;;6.79;100.00
74163;BME280;62515;52.758;5.076;2024-01-30T00:20:11;102602.72;;;6.78;100.00
74163;BME280;62515;52.758;5.076;2024-01-30T00:22:38;102598.22;;;6.80;100.00
74163;BME280;62515;52.758;5.076;2024-01-30T00:25:07;102594.31;;;6.95;100.00
74163;BME280;62515;52.758;5.076;2024-01-30T00:27:34;102588.31;;;6.88;100.00
74163;BME280;62515;52.758;5.076;2024-01-30T00:30:01;102588.41;;;6.85;100.00
74163;BME280;62515;52.758;5.076;2024-01-30T00:32:28;102587.34;;;6.91;100.00
74163;BME280;62515;52.758;5.076;2024-01-30T00:34:55;102582.81;;;6.96;100.00
74163;BME280;62515;52.758;5.076;2024-01-30T00:37:23;102574.59;;;7.05;100.00
74163;BME280;62515;52.758;5.076;2024-01-30T00:39:50;102571.16;;;7.01;100.00
74163;BME280;62515;52.758;5.076;2024-01-30T00:42:18;102577.78;;;7.16;100.00
74163;BME280;62515;52.758;5.076;2024-01-30T00:44:44;102585.88;;;7.11;100.00
74163;BME280;62515;52.758;5.076;2024-01-30T00:47:11;102589.41;;;7.12;100.00
74163;BME280;62515;52.758;5.076;2024-01-30T00:49:38;102586.47;;;7.21;100.00
74163;BME280;62515;52.758;5.076;2024-01-30T00:52:05;102575.22;;;7.13;100.00
74163;BME280;62515;52.758;5.076;2024-01-30T00:54:32;102596.66;;;7.05;100.00
74163;BME280;62515;52.758;5.076;2024-01-30T00:57:00;102595.22;;;7.23;100.00
74163;BME280;62515;52.758;5.076;2024-01-30T00:59:29;102589.75;;;7.29;100.00
74163;BME280;62515;52.758;5.076;2024-01-30T01:01:55;102597.16;;;7.18;100.00
74163;BME280;62515;52.758;5.076;2024-01-30T01:04:22;102584.81;;;7.17;100.00
74163;BME280;62515;52.758;5.076;2024-01-30T01:06:49;102584.84;;;7.15;100.00
74163;BME280;62515;52.758;5.076;2024-01-30T01:09:16;102578.03;;;7.08;100.00
74163;BME280;62515;52.758;5.076;2024-01-30T01:11:43;102582.44;;;7.08;100.00
74163;BME280;62515;52.758;5.076;2024-01-30T01:14:10;102570.91;;;7.10;100.00
74163;BME280;62515;52.758;5.076;2024-01-30T01:16:38;102587.06;;;7.30;100.00
74163;BME280;62515;52.758;5.076;2024-01-30T01:19:05;102578.34;;;7.27;100.00
74163;BME280;62515;52.758;5.076;2024-01-30T01:21:32;102577.44;;;7.28;100.00
74163;BME280;62515;52.758;5.076;2024-01-30T01:23:59;102570.84;;;7.41;100.00
74163;BME280;62515;52.758;5.076;2024-01-30T01:26:26;102576.94;;;7.43;100.00
74163;BME280;62515;52.758;5.076;2024-01-30T01:28:53;102574.88;;;7.53;100.00
74163;BME280;62515;52.758;5.076;2024-01-30T01:31:19;102569.63;;;7.51;100.00
74163;BME280;62515;52.758;5.076;2024-01-30T01:33:48;102567.16;;;7.73;100.00
74163;BME280;62515;52.758;5.076;2024-01-30T01:36:15;102568.31;;;7.64;100.00
74163;BME280;62515;52.758;5.076;2024-01-30T01:38:42;102563.09;;;7.63;100.00
74163;BME280;62515;52.758;5.076;2024-01-30T01:41:08;102576.16;;;7.67;100.00
74163;BME280;62515;52.758;5.076;2024-01-30T01:43:35;102561.19;;;7.66;100.00
74163;BME280;62515;52.758;5.076;2024-01-30T01:46:02;102570.38;;;7.82;100.00
74163;BME280;62515;52.758;5.076;2024-01-30T01:48:29;102555.41;;;7.81;100.00
74163;BME280;62515;52.758;5.076;2024-01-30T01:50:58;102573.28;;;8.01;100.00
74163;BME280;62515;52.758;5.076;2024-01-30T01:53:26;102564.81;;;7.90;100.00
74163;BME280;62515;52.758;5.076;2024-01-30T01:55:54;102565.22;;;8.04;100.00
74163;BME280;62515;52.758;5.076;2024-01-30T01:58:21;102548.09;;;7.88;100.00
74163;BME280;62515;52.758;5.076;2024-01-30T02:00:49;102537.28;;;7.94;100.00
74163;BME280;62515;52.758;5.076;2024-01-30T02:03:18;102547.75;;;7.99;100.00
74163;BME280;62515;52.758;5.076;2024-01-30T02:05:45;102532.88;;;7.95;100.00
74163;BME280;62515;52.758;5.076;2024-01-30T02:08:13;102530.94;;;8.00;100.00
74163;BME280;62515;52.758;5.076;2024-01-30T02:10:40;102520.03;;;7.82;100.00
74163;BME280;62515;52.758;5.076;2024-01-30T02:13:07;102529.44;;;7.91;100.00
74163;BME280;62515;52.758;5.076;2024-01-30T02:15:34;102533.84;;;7.92;100.00
74163;BME280;62515;52.758;5.076;2024-01-30T02:18:01;102540.56;;;8.02;100.00
74163;BME280;62515;52.758;5.076;2024-01-30T02:20:30;102527.31;;;8.27;100.00
74163;BME280;62515;52.758;5.076;2024-01-30T02:22:58;102537.22;;;8.22;100.00
74163;BME280;62515;52.758;5.076;2024-01-30T02:25:30;102528.44;;;8.20;100.00
74163;BME280;62515;52.758;5.076;2024-01-30T02:27:57;102520.34;;;8.00;100.00
74163;BME280;62515;52.758;5.076;2024-01-30T02:30:25;102537.19;;;7.97;100.00
74163;BME280;62515;52.758;5.076;2024-01-30T02:32:52;102514.16;;;7.99;100.00
74163;BME280;62515;52.758;5.076;2024-01-30T02:35:19;102520.59;;;7.92;100.00
74163;BME280;62515;52.758;5.076;2024-01-30T02:37:45;102508.47;;;7.85;100.00
74163;BME280;62515;52.758;5.076;2024-01-30T02:40:14;102496.63;;;7.95;100.00
74163;BME280;62515;52.758;5.076;2024-01-30T02:42:41;102495.53;;;7.76;100.00
74163;BME280;62515;52.758;5.076;2024-01-30T02:45:09;102499.84;;;7.78;100.00
74163;BME280;62515;52.758;5.076;2024-01-30T02:47:36;102502.91;;;7.66;100.00
74163;BME280;62515;52.758;5.076;2024-01-30T02:50:03;102503.72;;;7.68;100.00
74163;BME280;62515;52.758;5.076;2024-01-30T02:52:31;102505.28;;;7.74;100.00
74163;BME280;62515;52.758;5.076;2024-01-30T02:54:58;102510.53;;;7.75;100.00
74163;BME280;62515;52.758;5.076;2024-01-30T02:57:26;102513.41;;;7.96;100.00
74163;BME280;62515;52.758;5.076;2024-01-30T02:59:53;102512.09;;;7.82;100.00
74163;BME280;62515;52.758;5.076;2024-01-30T03:02:20;102516.66;;;7.77;100.00
74163;BME280;62515;52.758;5.076;2024-01-30T03:04:47;102512.66;;;7.90;100.00
74163;BME280;62515;52.758;5.076;2024-01-30T03:07:14;102517.28;;;7.85;100.00
74163;BME280;62515;52.758;5.076;2024-01-30T03:09:41;102493.25;;;7.90;100.00
74163;BME280;62515;52.758;5.076;2024-01-30T03:12:09;102495.06;;;7.89;100.00
74163;BME280;62515;52.758;5.076;2024-01-30T03:14:38;102500.63;;;8.07;100.00
74163;BME280;62515;52.758;5.076;2024-01-30T03:17:05;102494.72;;;7.99;100.00
74163;BME280;62515;52.758;5.076;2024-01-30T03:19:32;102485.81;;;8.01;100.00
74163;BME280;62515;52.758;5.076;2024-01-30T03:21:59;102481.31;;;8.03;100.00
74163;BME280;62515;52.758;5.076;2024-01-30T03:24:26;102482.06;;;8.07;100.00
74163;BME280;62515;52.758;5.076;2024-01-30T03:26:53;102475.09;;;8.04;100.00
74163;BME280;62515;52.758;5.076;2024-01-30T03:29:20;102472.22;;;8.10;100.00
74163;BME280;62515;52.758;5.076;2024-01-30T03:31:48;102457.72;;;8.20;100.00
74163;BME280;62515;52.758;5.076;2024-01-30T03:34:15;102460.66;;;8.13;100.00
74163;BME280;62515;52.758;5.076;2024-01-30T03:36:42;102466.75;;;8.15;100.00
74163;BME280;62515;52.758;5.076;2024-01-30T03:39:09;102467.56;;;8.17;100.00
74163;BME280;62515;52.758;5.076;2024-01-30T03:41:36;102467.56;;;8.17;100.00
74163;BME280;62515;52.758;5.076;2024-01-30T03:44:03;102471.88;;;8.19;100.00
74163;BME280;62515;52.758;5.076;2024-01-30T03:46:30;102474.38;;;8.24;100.00
74163;BME280;62515;52.758;5.076;2024-01-30T03:48:58;102476.41;;;8.42;100.00
74163;BME280;62515;52.758;5.076;2024-01-30T03:51:25;102469.72;;;8.32;100.00
74163;BME280;62515;52.758;5.076;2024-01-30T03:53:51;102461.91;;;8.26;100.00
74163;BME280;62515;52.758;5.076;2024-01-30T03:56:18;102474.16;;;8.31;100.00
74163;BME280;62515;52.758;5.076;2024-01-30T03:58:45;102471.31;;;8.36;100.00
74163;BME280;62515;52.758;5.076;2024-01-30T04:01:13;102465.75;;;8.44;100.00
74163;BME280;62515;52.758;5.076;2024-01-30T04:03:40;102463.44;;;8.34;100.00
74163;BME280;62515;52.758;5.076;2024-01-30T04:06:09;102461.94;;;8.51;100.00
74163;BME280;62515;52.758;5.076;2024-01-30T04:08:36;102466.75;;;8.39;100.00
74163;BME280;62515;52.758;5.076;2024-01-30T04:11:04;102449.81;;;8.44;100.00
74163;BME280;62515;52.758;5.076;2024-01-30T04:13:31;102458.22;;;8.31;100.00
74163;BME280;62515;52.758;5.076;2024-01-30T04:15:59;102444.97;;;8.31;100.00
74163;BME280;62515;52.758;5.076;2024-01-30T04:18:25;102450.47;;;8.25;100.00
74163;BME280;62515;52.758;5.076;2024-01-30T04:20:52;102462.09;;;8.21;100.00
74163;BME280;62515;52.758;5.076;2024-01-30T04:23:21;102459.88;;;8.35;100.00
74163;BME280;62515;52.758;5.076;2024-01-30T04:25:47;102445.31;;;8.21;100.00
74163;BME280;62515;52.758;5.076;2024-01-30T04:28:14;102445.44;;;8.18;100.00
74163;BME280;62515;52.758;5.076;2024-01-30T04:30:41;102441.81;;;8.20;100.00
74163;BME280;62515;52.758;5.076;2024-01-30T04:33:08;102446.88;;;8.26;100.00
74163;BME280;62515;52.758;5.076;2024-01-30T04:35:36;102441.34;;;8.34;100.00
74163;BME280;62515;52.758;5.076;2024-01-30T04:38:03;102450.31;;;8.30;100.00
74163;BME280;62515;52.758;5.076;2024-01-30T04:40:31;102450.72;;;8.43;100.00
74163;BME280;62515;52.758;5.076;2024-01-30T04:42:58;102440.81;;;8.23;100.00
74163;BME280;62515;52.758;5.076;2024-01-30T04:45:24;102441.66;;;8.25;100.00
74163;BME280;62515;52.758;5.076;2024-01-30T04:47:52;102434.28;;;8.33;100.00
74163;BME280;62515;52.758;5.076;2024-01-30T04:50:19;102449.44;;;8.29;100.00
74163;BME280;62515;52.758;5.076;2024-01-30T04:52:46;102443.06;;;8.35;100.00
74163;BME280;62515;52.758;5.076;2024-01-30T04:55:13;102438.72;;;8.32;100.00
74163;BME280;62515;52.758;5.076;2024-01-30T04:57:41;102430.50;;;8.40;100.00
74163;BME280;62515;52.758;5.076;2024-01-30T05:00:09;102424.50;;;8.35;100.00
74163;BME280;62515;52.758;5.076;2024-01-30T05:02:36;102434.41;;;8.30;100.00
74163;BME280;62515;52.758;5.076;2024-01-30T05:05:03;102419.59;;;8.23;100.00
74163;BME280;62515;52.758;5.076;2024-01-30T05:07:30;102430.97;;;8.28;100.00
74163;BME280;62515;52.758;5.076;2024-01-30T05:09:57;102434.19;;;8.36;100.00
74163;BME280;62515;52.758;5.076;2024-01-30T05:12:26;102429.47;;;8.44;100.00
74163;BME280;62515;52.758;5.076;2024-01-30T05:14:54;102417.75;;;8.50;100.00
74163;BME280;62515;52.758;5.076;2024-01-30T05:17:21;102412.69;;;8.44;100.00
74163;BME280;62515;52.758;5.076;2024-01-30T05:19:48;102410.09;;;8.42;100.00
74163;BME280;62515;52.758;5.076;2024-01-30T05:22:15;102416.94;;;8.48;100.00
74163;BME280;62515;52.758;5.076;2024-01-30T05:24:42;102410.91;;;8.44;100.00
74163;BME280;62515;52.758;5.076;2024-01-30T05:27:09;102418.63;;;8.50;100.00
74163;BME280;62515;52.758;5.076;2024-01-30T05:29:36;102417.59;;;8.54;100.00
74163;BME280;62515;52.758;5.076;2024-01-30T05:32:04;102430.25;;;8.69;100.00
74163;BME280;62515;52.758;5.076;2024-01-30T05:34:31;102414.97;;;8.53;100.00
74163;BME280;62515;52.758;5.076;2024-01-30T05:36:58;102421.66;;;8.63;100.00
74163;BME280;62515;52.758;5.076;2024-01-30T05:39:25;102438.56;;;8.60;100.00
74163;BME280;62515;52.758;5.076;2024-01-30T05:41:52;102428.19;;;8.54;100.00
74163;BME280;62515;52.758;5.076;2024-01-30T05:44:19;102433.38;;;8.57;100.00
74163;BME280;62515;52.758;5.076;2024-01-30T05:46:46;102421.03;;;8.56;100.00
74163;BME280;62515;52.758;5.076;2024-01-30T05:49:14;102428.63;;;8.65;100.00
74163;BME280;62515;52.758;5.076;2024-01-30T05:51:41;102425.03;;;8.45;100.00
74163;BME280;62515;52.758;5.076;2024-01-30T05:54:08;102424.16;;;8.44;100.00
74163;BME280;62515;52.758;5.076;2024-01-30T05:56:34;102412.94;;;8.36;100.00
74163;BME280;62515;52.758;5.076;2024-01-30T05:59:01;102413.94;;;8.33;100.00
74163;BME280;62515;52.758;5.076;2024-01-30T06:01:28;102406.19;;;8.29;100.00
74163;BME280;62515;52.758;5.076;2024-01-30T06:03:55;102404.50;;;8.25;100.00
74163;BME280;62515;52.758;5.076;2024-01-30T06:06:23;102396.19;;;8.35;100.00
74163;BME280;62515;52.758;5.076;2024-01-30T06:08:50;102400.19;;;8.22;100.00
74163;BME280;62515;52.758;5.076;2024-01-30T06:11:17;102393.31;;;8.17;100.00
74163;BME280;62515;52.758;5.076;2024-01-30T06:13:44;102401.97;;;8.22;100.00
74163;BME280;62515;52.758;5.076;2024-01-30T06:16:11;102390.44;;;8.23;100.00
74163;BME280;62515;52.758;5.076;2024-01-30T06:18:38;102392.16;;;8.24;100.00
74163;BME280;62515;52.758;5.076;2024-01-30T06:21:05;102376.41;;;8.19;100.00
74163;BME280;62515;52.758;5.076;2024-01-30T06:23:33;102400.41;;;8.41;100.00
74163;BME280;62515;52.758;5.076;2024-01-30T06:26:00;102378.88;;;8.25;100.00
74163;BME280;62515;52.758;5.076;2024-01-30T06:28:26;102394.56;;;8.31;100.00
74163;BME280;62515;52.758;5.076;2024-01-30T06:30:53;102396.72;;;8.45;100.00
74163;BME280;62515;52.758;5.076;2024-01-30T06:33:20;102416.72;;;8.54;100.00
74163;BME280;62515;52.758;5.076;2024-01-30T06:35:47;102405.19;;;8.55;100.00
74163;BME280;62515;52.758;5.076;2024-01-30T06:38:14;102411.06;;;8.63;100.00
74163;BME280;62515;52.758;5.076;2024-01-30T06:40:42;102413.91;;;8.80;100.00
74163;BME280;62515;52.758;5.076;2024-01-30T06:43:09;102403.66;;;8.71;100.00
74163;BME280;62515;52.758;5.076;2024-01-30T06:45:36;102417.50;;;8.79;100.00
74163;BME280;62515;52.758;5.076;2024-01-30T06:48:03;102426.16;;;8.84;100.00
74163;BME280;62515;52.758;5.076;2024-01-30T06:50:30;102423.66;;;8.79;100.00
74163;BME280;62515;52.758;5.076;2024-01-30T06:52:57;102424.53;;;8.80;100.00
74163;BME280;62515;52.758;5.076;2024-01-30T06:55:24;102433.06;;;8.88;100.00
74163;BME280;62515;52.758;5.076;2024-01-30T06:57:52;102429.72;;;9.05;100.00
74163;BME280;62515;52.758;5.076;2024-01-30T07:00:19;102439.47;;;9.04;100.00
74163;BME280;62515;52.758;5.076;2024-01-30T07:02:46;102436.38;;;9.16;100.00
74163;BME280;62515;52.758;5.076;2024-01-30T07:05:13;102438.06;;;9.17;100.00
74163;BME280;62515;52.758;5.076;2024-01-30T07:07:40;102436.16;;;9.21;100.00
74163;BME280;62515;52.758;5.076;2024-01-30T07:10:08;102428.81;;;9.27;100.00
74163;BME280;62515;52.758;5.076;2024-01-30T07:12:35;102437.91;;;9.22;100.00
74163;BME280;62515;52.758;5.076;2024-01-30T07:15:04;102450.25;;;9.44;100.00
74163;BME280;62515;52.758;5.076;2024-01-30T07:17:30;102430.25;;;9.36;100.00
74163;BME280;62515;52.758;5.076;2024-01-30T07:19:57;102432.81;;;9.37;100.00
74163;BME280;62515;52.758;5.076;2024-01-30T07:22:25;102442.75;;;9.54;100.00
74163;BME280;62515;52.758;5.076;2024-01-30T07:24:52;102441.97;;;9.52;100.00
74163;BME280;62515;52.758;5.076;2024-01-30T07:27:19;102448.94;;;9.55;100.00
74163;BME280;62515;52.758;5.076;2024-01-30T07:29:45;102453.06;;;9.62;100.00
74163;BME280;62515;52.758;5.076;2024-01-30T07:32:13;102455.16;;;9.75;100.00
74163;BME280;62515;52.758;5.076;2024-01-30T07:34:40;102447.28;;;9.72;100.00
74163;BME280;62515;52.758;5.076;2024-01-30T07:37:24;102457.00;;;9.73;100.00
74163;BME280;62515;52.758;5.076;2024-01-30T07:39:51;102453.28;;;9.77;100.00
74163;BME280;62515;52.758;5.076;2024-01-30T07:42:18;102463.84;;;9.79;100.00
74163;BME280;62515;52.758;5.076;2024-01-30T07:44:45;102459.59;;;9.75;100.00
74163;BME280;62515;52.758;5.076;2024-01-30T07:47:13;102468.66;;;9.91;100.00
74163;BME280;62515;52.758;5.076;2024-01-30T07:49:40;102467.47;;;9.98;100.00
74163;BME280;62515;52.758;5.076;2024-01-30T07:52:07;102462.75;;;10.05;100.00
74163;BME280;62515;52.758;5.076;2024-01-30T07:54:34;102464.31;;;10.09;100.00
74163;BME280;62515;52.758;5.076;2024-01-30T07:57:01;102465.91;;;10.14;100.00
74163;BME280;62515;52.758;5.076;2024-01-30T07:59:28;102471.13;;;10.16;100.00
74163;BME280;62515;52.758;5.076;2024-01-30T08:01:55;102461.75;;;10.27;100.00
74163;BME280;62515;52.758;5.076;2024-01-30T08:04:23;102478.97;;;10.39;100.00
74163;BME280;62515;52.758;5.076;2024-01-30T08:06:51;102479.38;;;10.30;100.00
74163;BME280;62515;52.758;5.076;2024-01-30T08:09:18;102469.38;;;10.35;100.00
74163;BME280;62515;52.758;5.076;2024-01-30T08:11:45;102465.47;;;10.43;100.00
74163;BME280;62515;52.758;5.076;2024-01-30T08:14:11;102467.75;;;10.51;100.00
74163;BME280;62515;52.758;5.076;2024-01-30T08:16:38;102471.16;;;10.55;100.00
74163;BME280;62515;52.758;5.076;2024-01-30T08:19:05;102471.66;;;10.63;100.00
74163;BME280;62515;52.758;5.076;2024-01-30T08:21:33;102468.91;;;10.83;100.00
74163;BME280;62515;52.758;5.076;2024-01-30T08:24:03;102476.22;;;10.79;100.00
74163;BME280;62515;52.758;5.076;2024-01-30T08:26:30;102474.34;;;10.81;100.00
74163;BME280;62515;52.758;5.076;2024-01-30T08:28:57;102490.31;;;10.81;100.00
74163;BME280;62515;52.758;5.076;2024-01-30T08:31:24;102480.97;;;10.91;100.00
74163;BME280;62515;52.758;5.076;2024-01-30T08:33:51;102482.34;;;10.81;100.00
74163;BME280;62515;52.758;5.076;2024-01-30T08:36:19;102476.84;;;10.84;100.00
74163;BME280;62515;52.758;5.076;2024-01-30T08:38:47;102479.75;;;10.98;100.00
74163;BME280;62515;52.758;5.076;2024-01-30T08:41:14;102478.75;;;10.82;100.00
74163;BME280;62515;52.758;5.076;2024-01-30T08:43:41;102494.44;;;10.88;100.00
74163;BME280;62515;52.758;5.076;2024-01-30T08:46:08;102483.78;;;10.88;100.00
74163;BME280;62515;52.758;5.076;2024-01-30T08:48:35;102485.34;;;10.92;100.00
74163;BME280;62515;52.758;5.076;2024-01-30T08:51:03;102488.88;;;10.93;100.00
74163;BME280;62515;52.758;5.076;2024-01-30T08:53:30;102499.53;;;10.93;100.00
74163;BME280;62515;52.758;5.076;2024-01-30T08:55:58;102498.59;;;11.13;100.00
74163;BME280;62515;52.758;5.076;2024-01-30T08:58:25;102509.41;;;10.91;100.00
74163;BME280;62515;52.758;5.076;2024-01-30T09:00:52;102503.34;;;11.06;100.00
74163;BME280;62515;52.758;5.076;2024-01-30T09:03:19;102504.66;;;10.97;100.00
74163;BME280;62515;52.758;5.076;2024-01-30T09:05:46;102504.16;;;11.08;100.00
74163;BME280;62515;52.758;5.076;2024-01-30T09:08:13;102500.47;;;11.11;100.00
74163;BME280;62515;52.758;5.076;2024-01-30T09:10:40;102504.66;;;10.97;100.00
74163;BME280;62515;52.758;5.076;2024-01-30T09:13:08;102503.75;;;11.16;100.00
74163;BME280;62515;52.758;5.076;2024-01-30T09:15:35;102504.34;;;11.03;100.00
74163;BME280;62515;52.758;5.076;2024-01-30T09:18:02;102497.16;;;11.06;100.00
74163;BME280;62515;52.758;5.076;2024-01-30T09:20:30;102501.41;;;10.91;100.00
74163;BME280;62515;52.758;5.076;2024-01-30T09:23:00;102503.06;;;10.93;100.00
74163;BME280;62515;52.758;5.076;2024-01-30T09:25:27;102504.13;;;10.89;100.00
74163;BME280;62515;52.758;5.076;2024-01-30T09:27:54;102505.88;;;10.90;100.00
74163;BME280;62515;52.758;5.076;2024-01-30T09:30:22;102506.53;;;10.95;100.00
74163;BME280;62515;52.758;5.076;2024-01-30T09:32:50;102506.63;;;10.74;100.00
74163;BME280;62515;52.758;5.076;2024-01-30T09:35:16;102510.25;;;10.73;100.00
74163;BME280;62515;52.758;5.076;2024-01-30T09:37:44;102527.22;;;10.70;100.00
74163;BME280;62515;52.758;5.076;2024-01-30T09:40:11;102526.75;;;10.61;100.00
74163;BME280;62515;52.758;5.076;2024-01-30T09:42:38;102529.06;;;10.49;100.00
74163;BME280;62515;52.758;5.076;2024-01-30T09:45:07;102521.94;;;10.50;100.00
74163;BME280;62515;52.758;5.076;2024-01-30T09:47:40;102530.97;;;10.66;100.00
74163;BME280;62515;52.758;5.076;2024-01-30T09:50:07;102539.72;;;10.49;100.00
74163;BME280;62515;52.758;5.076;2024-01-30T09:52:35;102532.31;;;10.36;100.00
74163;BME280;62515;52.758;5.076;2024-01-30T09:55:03;102537.69;;;10.34;100.00
74163;BME280;62515;52.758;5.076;2024-01-30T09:57:30;102551.34;;;10.27;100.00
74163;BME280;62515;52.758;5.076;2024-01-30T09:59:57;102529.66;;;10.16;100.00
74163;BME280;62515;52.758;5.076;2024-01-30T10:02:24;102535.22;;;10.10;100.00
74163;BME280;62515;52.758;5.076;2024-01-30T10:04:52;102537.75;;;10.13;100.00
74163;BME280;62515;52.758;5.076;2024-01-30T10:07:19;102525.38;;;9.91;100.00
74163;BME280;62515;52.758;5.076;2024-01-30T10:09:46;102539.97;;;10.02;100.00
74163;BME280;62515;52.758;5.076;2024-01-30T10:12:13;102538.53;;;9.94;100.00
74163;BME280;62515;52.758;5.076;2024-01-30T10:14:40;102538.28;;;10.01;100.00
74163;BME280;62515;52.758;5.076;2024-01-30T10:17:08;102537.88;;;10.10;100.00
74163;BME280;62515;52.758;5.076;2024-01-30T10:19:47;102539.59;;;9.90;100.00
74163;BME280;62515;52.758;5.076;2024-01-30T10:22:16;102535.00;;;9.94;100.00
74163;BME280;62515;52.758;5.076;2024-01-30T10:24:44;102539.84;;;9.84;100.00
74163;BME280;62515;52.758;5.076;2024-01-30T10:27:10;102543.75;;;9.96;100.00
74163;BME280;62515;52.758;5.076;2024-01-30T10:29:37;102537.19;;;9.84;100.00
74163;BME280;62515;52.758;5.076;2024-01-30T10:32:06;102544.25;;;10.06;100.00
74163;BME280;62515;52.758;5.076;2024-01-30T10:34:33;102551.97;;;9.91;100.00
74163;BME280;62515;52.758;5.076;2024-01-30T10:37:10;102543.88;;;10.15;100.00
74163;BME280;62515;52.758;5.076;2024-01-30T10:39:39;102554.06;;;10.45;100.00
74163;BME280;62515;52.758;5.076;2024-01-30T10:42:11;102547.66;;;10.70;100.00
74163;BME280;62515;52.758;5.076;2024-01-30T10:44:50;102557.47;;;10.69;100.00
74163;BME280;62515;52.758;5.076;2024-01-30T10:47:26;102565.13;;;10.95;100.00
74163;BME280;62515;52.758;5.076;2024-01-30T10:49:54;102556.34;;;11.12;100.00
74163;BME280;62515;52.758;5.076;2024-01-30T10:52:23;102560.41;;;11.02;100.00
74163;BME280;62515;52.758;5.076;2024-01-30T10:54:53;102567.69;;;10.78;100.00
74163;BME280;62515;52.758;5.076;2024-01-30T10:57:23;102573.22;;;10.54;100.00
74163;BME280;62515;52.758;5.076;2024-01-30T10:59:51;102580.88;;;10.41;100.00
74163;BME280;62515;52.758;5.076;2024-01-30T11:02:19;102570.13;;;10.24;100.00
74163;BME280;62515;52.758;5.076;2024-01-30T11:04:47;102568.06;;;10.09;100.00
74163;BME280;62515;52.758;5.076;2024-01-30T11:07:14;102571.31;;;10.17;100.00
74163;BME280;62515;52.758;5.076;2024-01-30T11:09:48;102565.44;;;10.29;100.00
74163;BME280;62515;52.758;5.076;2024-01-30T11:12:21;102569.13;;;10.26;100.00
74163;BME280;62515;52.758;5.076;2024-01-30T11:14:48;102565.97;;;10.17;100.00
74163;BME280;62515;52.758;5.076;2024-01-30T11:17:15;102551.84;;;9.51;100.00
74163;BME280;62515;52.758;5.076;2024-01-30T11:19:42;102555.72;;;9.86;100.00
74163;BME280;62515;52.758;5.076;2024-01-30T11:22:10;102559.06;;;10.33;100.00
74163;BME280;62515;52.758;5.076;2024-01-30T11:24:41;102550.22;;;9.90;100.00
74163;BME280;62515;52.758;5.076;2024-01-30T11:27:08;102545.53;;;9.75;100.00
74163;BME280;62515;52.758;5.076;2024-01-30T11:29:40;102551.81;;;9.94;100.00
74163;BME280;62515;52.758;5.076;2024-01-30T11:32:07;102547.94;;;9.81;100.00
74163;BME280;62515;52.758;5.076;2024-01-30T11:34:34;102545.56;;;9.95;100.00
74163;BME280;62515;52.758;5.076;2024-01-30T11:37:03;102545.22;;;10.25;100.00
74163;BME280;62515;52.758;5.076;2024-01-30T11:39:36;102551.75;;;10.38;100.00
74163;BME280;62515;52.758;5.076;2024-01-30T11:42:06;102551.88;;;10.35;100.00
74163;BME280;62515;52.758;5.076;2024-01-30T11:44:34;102550.81;;;10.19;100.00
74163;BME280;62515;52.758;5.076;2024-01-30T11:47:02;102557.66;;;10.24;100.00
74163;BME280;62515;52.758;5.076;2024-01-30T11:49:29;102555.69;;;10.29;100.00
74163;BME280;62515;52.758;5.076;2024-01-30T11:51:56;102565.59;;;10.46;100.00
74163;BME280;62515;52.758;5.076;2024-01-30T11:54:23;102559.47;;;10.24;100.00
74163;BME280;62515;52.758;5.076;2024-01-30T11:56:50;102562.00;;;10.05;100.00
74163;BME280;62515;52.758;5.076;2024-01-30T11:59:17;102551.81;;;9.94;100.00
74163;BME280;62515;52.758;5.076;2024-01-30T12:01:44;102559.41;;;10.04;100.00
74163;BME280;62515;52.758;5.076;2024-01-30T12:04:12;102536.50;;;9.79;100.00
74163;BME280;62515;52.758;5.076;2024-01-30T12:06:39;102541.44;;;9.67;100.00
74163;BME280;62515;52.758;5.076;2024-01-30T12:09:06;102550.16;;;9.70;100.00
74163;BME280;62515;52.758;5.076;2024-01-30T12:11:33;102565.44;;;9.65;100.00
74163;BME280;62515;52.758;5.076;2024-01-30T12:14:09;102548.75;;;9.62;100.00
74163;BME280;62515;52.758;5.076;2024-01-30T12:16:36;102558.94;;;9.72;100.00
74163;BME280;62515;52.758;5.076;2024-01-30T12:19:03;102561.72;;;9.69;100.00
74163;BME280;62515;52.758;5.076;2024-01-30T12:21:33;102560.19;;;9.64;100.00
74163;BME280;62515;52.758;5.076;2024-01-30T12:24:00;102555.25;;;9.55;100.00
74163;BME280;62515;52.758;5.076;2024-01-30T12:26:27;102567.44;;;9.37;100.00
74163;BME280;62515;52.758;5.076;2024-01-30T12:28:55;102555.13;;;9.36;100.00
74163;BME280;62515;52.758;5.076;2024-01-30T12:31:25;102562.09;;;9.38;100.00
74163;BME280;62515;52.758;5.076;2024-01-30T12:33:52;102567.28;;;9.41;100.00
74163;BME280;62515;52.758;5.076;2024-01-30T12:36:19;102554.03;;;9.40;100.00
74163;BME280;62515;52.758;5.076;2024-01-30T12:38:49;102556.81;;;9.37;100.00
74163;BME280;62515;52.758;5.076;2024-01-30T12:41:16;102555.16;;;9.56;100.00
74163;BME280;62515;52.758;5.076;2024-01-30T12:43:43;102546.53;;;9.51;100.00
74163;BME280;62515;52.758;5.076;2024-01-30T12:46:10;102566.03;;;9.50;100.00
74163;BME280;62515;52.758;5.076;2024-01-30T12:48:36;102555.38;;;9.52;100.00